createdAt,value
2022-09-20T00:00:16.645Z,27.55
2022-09-20T00:02:43.809Z,27.55
2022-09-20T00:05:11.014Z,27.56
2022-09-20T00:07:38.444Z,27.56
2022-09-20T00:10:06.630Z,27.55
2022-09-20T00:12:36.190Z,27.55
2022-09-20T00:15:06.356Z,27.55
2022-09-20T00:17:34.214Z,27.54
2022-09-20T00:20:01.631Z,27.54
2022-09-20T00:22:30.015Z,27.53
2022-09-20T00:24:57.158Z,27.53
2022-09-20T00:27:27.999Z,27.52
2022-09-20T00:29:55.445Z,27.52
2022-09-20T00:32:22.806Z,27.52
2022-09-20T00:35:08.296Z,27.52
2022-09-20T00:37:36.371Z,27.52
2022-09-20T00:40:06.515Z,27.51
2022-09-20T00:42:34.659Z,27.52
2022-09-20T00:45:10.024Z,27.51
2022-09-20T00:48:05.400Z,27.51
2022-09-20T00:50:48.251Z,27.51
2022-09-20T00:53:24.567Z,27.52
2022-09-20T00:56:34.218Z,27.53
2022-09-20T00:59:36.169Z,27.53
2022-09-20T01:02:17.771Z,27.54
2022-09-20T01:04:52.694Z,27.54
2022-09-20T01:07:22.947Z,27.54
2022-09-20T01:09:51.542Z,27.54
2022-09-20T01:12:22.673Z,27.55
2022-09-20T01:14:52.999Z,27.54
2022-09-20T01:17:23.557Z,27.55
2022-09-20T01:19:59.578Z,27.55
2022-09-20T01:22:48.346Z,27.54
2022-09-20T01:25:50.213Z,27.55
2022-09-20T01:28:19.044Z,27.54
2022-09-20T01:31:09.902Z,27.55
2022-09-20T01:33:56.511Z,27.54
2022-09-20T01:36:43.319Z,27.54
2022-09-20T01:39:32.863Z,27.55
2022-09-20T01:42:08.505Z,27.54
2022-09-20T01:45:21.873Z,27.55
2022-09-20T01:48:10.838Z,27.54
2022-09-20T01:50:58.776Z,27.55
2022-09-20T01:54:03.533Z,27.55
2022-09-20T01:56:59.663Z,27.55
2022-09-20T01:59:52.248Z,27.56
2022-09-20T02:02:57.419Z,27.57
2022-09-20T02:05:39.933Z,27.59
2022-09-20T02:08:39.841Z,27.60
2022-09-20T02:11:14.778Z,27.60
2022-09-20T02:14:01.085Z,27.61
2022-09-20T02:16:45.469Z,27.62
2022-09-20T02:19:54.412Z,27.63
2022-09-20T02:22:41.979Z,27.63
2022-09-20T02:25:30.629Z,27.64
2022-09-20T02:28:16.742Z,27.64
2022-09-20T02:31:31.368Z,27.64
2022-09-20T02:34:25.806Z,27.64
2022-09-20T02:37:43.566Z,27.65
2022-09-20T02:40:48.158Z,27.65
2022-09-20T02:43:32.695Z,27.66
2022-09-20T02:46:35.036Z,27.66
2022-09-20T02:49:07.889Z,27.65
2022-09-20T02:51:58.521Z,27.65
2022-09-20T02:54:44.569Z,27.63
2022-09-20T02:57:34.347Z,27.61
2022-09-20T03:00:10.442Z,27.60
2022-09-20T03:02:56.256Z,27.59
2022-09-20T03:05:48.656Z,27.59
2022-09-20T03:08:49.067Z,27.57
2022-09-20T03:11:46.532Z,27.56
2022-09-20T03:14:23.740Z,27.56
2022-09-20T03:16:52.485Z,27.56
2022-09-20T03:19:44.942Z,27.54
2022-09-20T03:22:24.195Z,27.53
2022-09-20T03:25:16.010Z,27.53
2022-09-20T03:27:42.954Z,27.51
2022-09-20T03:30:52.390Z,27.50
2022-09-20T03:33:40.995Z,27.49
2022-09-20T03:36:21.119Z,27.48
2022-09-20T03:39:35.771Z,27.48
2022-09-20T03:42:13.061Z,27.47
2022-09-20T03:45:11.537Z,27.47
2022-09-20T03:48:07.158Z,27.46
2022-09-20T03:51:13.013Z,27.47
2022-09-20T03:54:11.190Z,27.47
2022-09-20T03:56:51.138Z,27.46
2022-09-20T03:59:56.592Z,27.46
2022-09-20T04:02:32.727Z,27.46
2022-09-20T04:05:22.720Z,27.45
2022-09-20T04:07:58.780Z,27.45
2022-09-20T04:10:26.015Z,27.45
2022-09-20T04:13:21.242Z,27.44
2022-09-20T04:15:54.453Z,27.43
2022-09-20T04:18:45.243Z,27.43
2022-09-20T04:21:25.305Z,27.41
2022-09-20T04:24:14.160Z,27.41
2022-09-20T04:26:46.949Z,27.41
2022-09-20T04:29:20.169Z,27.41
2022-09-20T04:32:00.056Z,27.41
2022-09-20T04:34:53.307Z,27.41
2022-09-20T04:37:33.440Z,27.41
2022-09-20T04:40:17.050Z,27.41
2022-09-20T04:42:59.462Z,27.41
2022-09-20T04:45:30.857Z,27.40
2022-09-20T04:48:10.111Z,27.41
2022-09-20T04:51:01.205Z,27.42
2022-09-20T04:54:05.631Z,27.44
2022-09-20T04:56:55.321Z,27.48
2022-09-20T04:59:43.912Z,27.50
2022-09-20T05:02:48.363Z,27.52
2022-09-20T05:05:59.112Z,27.54
2022-09-20T05:08:48.807Z,27.55
2022-09-20T05:11:47.346Z,27.56
2022-09-20T05:14:35.774Z,27.58
2022-09-20T05:17:38.706Z,27.60
2022-09-20T05:20:12.329Z,27.61
2022-09-20T05:23:01.905Z,27.59
2022-09-20T05:25:52.962Z,27.57
2022-09-20T05:28:45.461Z,27.56
2022-09-20T05:31:34.004Z,27.53
2022-09-20T05:34:20.112Z,27.52
2022-09-20T05:37:05.284Z,27.50
2022-09-20T05:39:46.567Z,27.49
2022-09-20T05:42:42.087Z,27.47
2022-09-20T05:45:50.848Z,27.45
2022-09-20T05:48:32.708Z,27.43
2022-09-20T05:51:08.067Z,27.41
2022-09-20T05:54:13.910Z,27.40
2022-09-20T05:57:11.692Z,27.38
2022-09-20T06:00:01.170Z,27.37
2022-09-20T06:02:32.531Z,27.36
2022-09-20T06:05:10.217Z,27.34
2022-09-20T06:08:24.878Z,27.33
2022-09-20T06:11:34.030Z,27.33
2022-09-20T06:14:10.485Z,27.33
2022-09-20T06:17:10.915Z,27.33
2022-09-20T06:20:06.737Z,27.32
2022-09-20T06:22:38.504Z,27.32
2022-09-20T06:25:19.274Z,27.33
2022-09-20T06:28:01.989Z,27.33
2022-09-20T06:30:40.141Z,27.32
2022-09-20T06:33:16.873Z,27.32
2022-09-20T06:35:54.692Z,27.33
2022-09-20T06:39:11.312Z,27.33
2022-09-20T06:41:39.903Z,27.34
2022-09-20T06:44:12.554Z,27.34
2022-09-20T06:46:42.079Z,27.35
2022-09-20T06:49:09.820Z,27.36
2022-09-20T06:51:40.560Z,27.37
2022-09-20T06:54:14.500Z,27.37
2022-09-20T06:56:41.605Z,27.39
2022-09-20T06:59:10.457Z,27.39
2022-09-20T07:01:38.511Z,27.40
2022-09-20T07:04:09.933Z,27.43
2022-09-20T07:06:37.388Z,27.45
2022-09-20T07:09:05.824Z,27.48
2022-09-20T07:11:35.245Z,27.49
2022-09-20T07:14:02.466Z,27.51
2022-09-20T07:16:29.808Z,27.52
2022-09-20T07:18:57.087Z,27.53
2022-09-20T07:21:24.382Z,27.56
2022-09-20T07:23:52.216Z,27.57
2022-09-20T07:26:20.650Z,27.58
2022-09-20T07:28:47.667Z,27.59
2022-09-20T07:31:14.763Z,27.60
2022-09-20T07:33:42.013Z,27.62
2022-09-20T07:36:10.474Z,27.63
2022-09-20T07:38:37.500Z,27.64
2022-09-20T07:41:04.768Z,27.64
2022-09-20T07:43:32.134Z,27.65
2022-09-20T07:46:00.182Z,27.66
2022-09-20T07:48:30.762Z,27.66
2022-09-20T07:51:13.942Z,27.67
2022-09-20T07:53:41.546Z,27.67
2022-09-20T07:56:08.490Z,27.68
2022-09-20T07:58:36.308Z,27.69
2022-09-20T08:01:09.884Z,27.69
2022-09-20T08:03:38.019Z,27.70
2022-09-20T08:06:10.480Z,27.69
2022-09-20T08:08:40.900Z,27.68
2022-09-20T08:11:15.764Z,27.67
2022-09-20T08:16:41.062Z,27.66
2022-09-20T08:19:08.470Z,27.64
2022-09-20T08:21:38.533Z,27.62
2022-09-20T08:24:06.227Z,27.60
2022-09-20T08:26:35.440Z,27.59
2022-09-20T08:29:02.581Z,27.57
2022-09-20T08:31:34.543Z,27.54
2022-09-20T08:34:06.859Z,27.53
2022-09-20T08:36:37.116Z,27.52
2022-09-20T08:41:57.896Z,27.48
2022-09-20T08:44:35.426Z,27.48
2022-09-20T08:47:13.464Z,27.47
2022-09-20T08:49:46.157Z,27.46
2022-09-20T08:52:19.651Z,27.46
2022-09-20T08:54:47.729Z,27.45
2022-09-20T08:57:18.115Z,27.45
2022-09-20T08:59:45.622Z,27.45
2022-09-20T09:02:20.672Z,27.46
2022-09-20T09:04:50.367Z,27.46
2022-09-20T09:07:22.036Z,27.47
2022-09-20T09:09:53.901Z,27.47
2022-09-20T09:12:27.928Z,27.47
2022-09-20T09:15:01.187Z,27.47
2022-09-20T09:17:30.285Z,27.47
2022-09-20T09:20:16.176Z,27.46
2022-09-20T09:22:47.939Z,27.45
2022-09-20T09:25:14.984Z,27.46
2022-09-20T09:28:03.539Z,27.45
2022-09-20T09:30:48.094Z,27.45
2022-09-20T09:33:18.220Z,27.45
2022-09-20T09:36:00.275Z,27.45
2022-09-20T09:38:30.708Z,27.45
2022-09-20T09:41:29.985Z,27.45
2022-09-20T09:44:10.113Z,27.45
2022-09-20T09:46:42.500Z,27.44
2022-09-20T09:49:23.151Z,27.44
2022-09-20T09:51:56.043Z,27.44
2022-09-20T09:54:26.210Z,27.44
2022-09-20T09:57:45.949Z,27.44
2022-09-20T10:00:22.645Z,27.44
2022-09-20T10:02:57.195Z,27.44
2022-09-20T10:05:59.158Z,27.45
2022-09-20T10:08:40.511Z,27.45
2022-09-20T10:11:13.494Z,27.45
2022-09-20T10:14:00.880Z,27.44
2022-09-20T10:16:43.670Z,27.45
2022-09-20T10:19:11.242Z,27.45
2022-09-20T10:21:57.183Z,27.44
2022-09-20T10:24:46.443Z,27.44
2022-09-20T10:27:31.119Z,27.43
2022-09-20T10:30:12.231Z,27.43
2022-09-20T10:33:07.009Z,27.43
2022-09-20T10:35:54.015Z,27.43
2022-09-20T10:38:42.570Z,27.44
2022-09-20T10:42:00.917Z,27.45
2022-09-20T10:44:42.768Z,27.45
2022-09-20T10:47:22.566Z,27.45
2022-09-20T10:50:21.361Z,27.45
2022-09-20T10:52:57.330Z,27.45
2022-09-20T10:55:32.085Z,27.46
2022-09-20T10:58:07.735Z,27.47
2022-09-20T11:00:49.753Z,27.47
2022-09-20T11:03:39.688Z,27.48
2022-09-20T11:06:36.307Z,27.48
2022-09-20T11:09:07.233Z,27.49
2022-09-20T11:11:44.254Z,27.50
2022-09-20T11:14:14.165Z,27.51
2022-09-20T11:17:02.441Z,27.51
2022-09-20T11:19:38.266Z,27.52
2022-09-20T11:22:15.397Z,27.53
2022-09-20T11:24:53.768Z,27.54
2022-09-20T11:27:32.385Z,27.55
2022-09-20T11:30:19.304Z,27.56
2022-09-20T11:32:53.617Z,27.56
2022-09-20T11:35:29.573Z,27.56
2022-09-20T11:38:14.547Z,27.57
2022-09-20T11:41:14.695Z,27.58
2022-09-20T11:43:44.961Z,27.58
2022-09-20T11:46:20.296Z,27.59
2022-09-20T11:49:11.362Z,27.60
2022-09-20T11:52:08.211Z,27.59
2022-09-20T11:54:56.044Z,27.58
2022-09-20T11:57:24.739Z,27.57
2022-09-20T12:00:05.180Z,27.57
2022-09-20T12:02:49.821Z,27.56
2022-09-20T12:05:39.240Z,27.57
2022-09-20T12:08:18.444Z,27.56
2022-09-20T12:11:12.154Z,27.56
2022-09-20T12:13:52.675Z,27.53
2022-09-20T12:16:40.787Z,27.52
2022-09-20T12:19:14.300Z,27.51
2022-09-20T12:21:59.853Z,27.51
2022-09-20T12:24:33.119Z,27.49
2022-09-20T12:27:01.614Z,27.48
2022-09-20T12:29:31.734Z,27.47
2022-09-20T12:32:02.563Z,27.46
2022-09-20T12:34:36.516Z,27.44
2022-09-20T12:37:04.881Z,27.44
2022-09-20T12:39:40.303Z,27.43
2022-09-20T12:42:33.064Z,27.42
2022-09-20T12:45:17.007Z,27.40
2022-09-20T12:47:55.840Z,27.39
2022-09-20T12:50:42.747Z,27.39
2022-09-20T12:53:17.805Z,27.38
2022-09-20T12:55:50.506Z,27.39
2022-09-20T12:58:23.217Z,27.39
2022-09-20T13:00:57.630Z,27.40
2022-09-20T13:03:28.914Z,27.39
2022-09-20T13:06:15.112Z,27.37
2022-09-20T13:08:52.958Z,27.36
2022-09-20T13:11:48.125Z,27.35
2022-09-20T13:14:22.970Z,27.34
2022-09-20T13:17:22.367Z,27.34
2022-09-20T13:19:51.798Z,27.32
2022-09-20T13:22:36.237Z,27.32
2022-09-20T13:25:13.842Z,27.32
2022-09-20T13:27:50.285Z,27.33
2022-09-20T13:30:19.284Z,27.34
2022-09-20T13:32:51.679Z,27.34
2022-09-20T13:35:32.979Z,27.34
2022-09-20T13:38:07.929Z,27.34
2022-09-20T13:40:37.348Z,27.34
2022-09-20T13:43:24.630Z,27.34
2022-09-20T13:46:00.711Z,27.35
2022-09-20T13:48:29.789Z,27.35
2022-09-20T13:50:58.079Z,27.35
2022-09-20T13:53:41.207Z,27.35
2022-09-20T13:56:22.967Z,27.35
2022-09-20T13:58:53.259Z,27.36
2022-09-20T14:01:32.978Z,27.38
2022-09-20T14:04:08.474Z,27.40
2022-09-20T14:06:36.534Z,27.40
2022-09-20T14:09:11.049Z,27.40
2022-09-20T14:11:40.438Z,27.41
2022-09-20T14:14:09.603Z,27.41
2022-09-20T14:16:45.395Z,27.42
2022-09-20T14:19:16.040Z,27.42
2022-09-20T14:21:45.267Z,27.43
2022-09-20T14:24:18.103Z,27.44
2022-09-20T14:27:16.682Z,27.45
2022-09-20T14:29:47.196Z,27.45
2022-09-20T14:32:17.350Z,27.46
2022-09-20T14:35:03.235Z,27.48
2022-09-20T14:37:42.008Z,27.49
2022-09-20T14:40:23.319Z,27.50
2022-09-20T14:42:52.609Z,27.52
2022-09-20T14:45:30.758Z,27.53
2022-09-20T14:48:11.432Z,27.54
2022-09-20T14:50:45.010Z,27.55
2022-09-20T14:53:13.060Z,27.55
2022-09-20T14:55:56.169Z,27.57
2022-09-20T14:58:24.965Z,27.57
2022-09-20T15:01:26.103Z,27.59
2022-09-20T15:03:53.980Z,27.59
2022-09-20T15:06:21.059Z,27.59
2022-09-20T15:08:48.690Z,27.59
2022-09-20T15:11:19.320Z,27.60
2022-09-20T15:13:47.094Z,27.60
2022-09-20T15:16:17.786Z,27.60
2022-09-20T15:18:45.962Z,27.61
2022-09-20T15:21:13.525Z,27.62
2022-09-20T15:23:41.392Z,27.63
2022-09-20T15:26:11.241Z,27.63
2022-09-20T15:28:38.393Z,27.63
2022-09-20T15:31:05.442Z,27.63
2022-09-20T15:33:33.551Z,27.63
2022-09-20T15:36:03.483Z,27.62
2022-09-20T15:38:30.690Z,27.61
2022-09-20T15:41:04.360Z,27.60
2022-09-20T15:43:32.052Z,27.59
2022-09-20T15:46:02.239Z,27.57
2022-09-20T15:48:31.090Z,27.56
2022-09-20T15:50:59.245Z,27.54
2022-09-20T15:53:26.403Z,27.54
2022-09-20T15:55:53.545Z,27.53
2022-09-20T15:58:21.357Z,27.52
2022-09-20T16:00:50.249Z,27.52
2022-09-20T16:03:17.772Z,27.52
2022-09-20T16:05:45.222Z,27.50
2022-09-20T16:08:13.917Z,27.50
2022-09-20T16:10:40.892Z,27.50
2022-09-20T16:13:07.913Z,27.50
2022-09-20T16:15:35.373Z,27.49
2022-09-20T16:18:21.375Z,27.48
2022-09-20T16:20:48.926Z,27.47
2022-09-20T16:23:15.971Z,27.47
2022-09-20T16:25:43.026Z,27.46
2022-09-20T16:28:10.480Z,27.46
2022-09-20T16:30:37.720Z,27.46
2022-09-20T16:33:06.423Z,27.46
2022-09-20T16:35:34.818Z,27.46
2022-09-20T16:38:01.854Z,27.47
2022-09-20T16:40:29.665Z,27.46
2022-09-20T16:42:59.024Z,27.47
2022-09-20T16:45:27.252Z,27.46
2022-09-20T16:47:58.406Z,27.46
2022-09-20T16:50:25.598Z,27.46
2022-09-20T16:52:53.110Z,27.46
2022-09-20T16:55:21.130Z,27.46
2022-09-20T16:57:52.269Z,27.46
2022-09-20T17:00:23.229Z,27.46
2022-09-20T17:02:50.975Z,27.46
2022-09-20T17:05:18.504Z,27.45
2022-09-20T17:07:47.232Z,27.44
2022-09-20T17:10:15.304Z,27.45
2022-09-20T17:12:43.782Z,27.45
2022-09-20T17:15:13.399Z,27.45
2022-09-20T17:17:40.766Z,27.45
2022-09-20T17:20:08.207Z,27.45
2022-09-20T17:22:35.230Z,27.44
2022-09-20T17:25:02.611Z,27.44
2022-09-20T17:27:30.384Z,27.44
2022-09-20T17:29:57.944Z,27.44
2022-09-20T17:32:25.094Z,27.44
2022-09-20T17:34:52.321Z,27.45
2022-09-20T17:37:19.915Z,27.45
2022-09-20T17:39:47.163Z,27.46
2022-09-20T17:42:14.634Z,27.47
2022-09-20T17:44:41.858Z,27.47
2022-09-20T17:47:09.437Z,27.48
2022-09-20T17:49:39.056Z,27.48
2022-09-20T17:52:08.361Z,27.49
2022-09-20T17:54:35.813Z,27.50
2022-09-20T17:57:02.957Z,27.51
2022-09-20T17:59:30.121Z,27.52
2022-09-20T18:01:57.671Z,27.53
2022-09-20T18:04:25.233Z,27.55
2022-09-20T18:06:53.711Z,27.56
2022-09-20T18:09:23.133Z,27.57
2022-09-20T18:11:53.404Z,27.59
2022-09-20T18:14:26.016Z,27.61
2022-09-20T18:16:56.618Z,27.63
2022-09-20T18:19:24.363Z,27.65
2022-09-20T18:21:51.676Z,27.65
2022-09-20T18:24:18.830Z,27.65
2022-09-20T18:26:45.980Z,27.65
2022-09-20T18:29:17.958Z,27.66
2022-09-20T18:31:54.614Z,27.66
2022-09-20T18:34:23.923Z,27.66
2022-09-20T18:36:56.701Z,27.66
2022-09-20T18:39:26.309Z,27.67
2022-09-20T18:41:53.572Z,27.67
2022-09-20T18:44:21.900Z,27.67
2022-09-20T18:46:50.945Z,27.68
2022-09-20T18:49:18.004Z,27.68
2022-09-20T18:51:46.780Z,27.68
2022-09-20T18:54:13.810Z,27.67
2022-09-20T18:56:43.255Z,27.66
2022-09-20T18:59:20.027Z,27.66
2022-09-20T19:02:05.678Z,27.66
2022-09-20T19:04:52.325Z,27.64
2022-09-20T19:07:41.648Z,27.62
2022-09-20T19:10:38.183Z,27.60
2022-09-20T19:13:20.629Z,27.58
2022-09-20T19:16:12.332Z,27.56
2022-09-20T19:19:01.632Z,27.53
2022-09-20T19:21:40.959Z,27.52
2022-09-20T19:24:23.071Z,27.51
2022-09-20T19:26:50.656Z,27.49
2022-09-20T19:29:19.691Z,27.48
2022-09-20T19:31:51.650Z,27.48
2022-09-20T19:34:27.652Z,27.47
2022-09-20T19:37:18.813Z,27.47
2022-09-20T19:40:17.089Z,27.46
2022-09-20T19:43:03.446Z,27.45
2022-09-20T19:45:42.273Z,27.45
2022-09-20T19:48:30.709Z,27.46
2022-09-20T19:51:02.726Z,27.47
2022-09-20T19:53:30.582Z,27.49
2022-09-20T19:56:03.856Z,27.49
2022-09-20T19:58:31.216Z,27.50
2022-09-20T20:00:58.672Z,27.51
2022-09-20T20:03:27.642Z,27.53
2022-09-20T20:06:08.137Z,27.54
2022-09-20T20:08:50.953Z,27.56
2022-09-20T20:11:25.198Z,27.58
2022-09-20T20:14:03.419Z,27.61
2022-09-20T20:16:45.612Z,27.63
2022-09-20T20:19:36.929Z,27.64
2022-09-20T20:22:13.362Z,27.65
2022-09-20T20:24:53.927Z,27.66
2022-09-20T20:27:21.807Z,27.66
2022-09-20T20:29:49.652Z,27.65
2022-09-20T20:32:16.818Z,27.65
2022-09-20T20:34:44.791Z,27.64
2022-09-20T20:37:11.854Z,27.62
2022-09-20T20:39:39.811Z,27.60
2022-09-20T20:42:10.234Z,27.58
2022-09-20T20:44:37.384Z,27.58
2022-09-20T20:47:06.425Z,27.57
2022-09-20T20:49:33.573Z,27.57
2022-09-20T20:52:05.039Z,27.56
2022-09-20T20:54:33.064Z,27.56
2022-09-20T20:57:00.351Z,27.56
2022-09-20T20:59:28.273Z,27.56
2022-09-20T21:01:55.337Z,27.57
2022-09-20T21:04:23.260Z,27.56
2022-09-20T21:06:50.649Z,27.55
2022-09-20T21:09:19.235Z,27.54
2022-09-20T21:11:48.632Z,27.53
2022-09-20T21:14:16.298Z,27.53
2022-09-20T21:16:44.061Z,27.54
2022-09-20T21:19:18.352Z,27.55
2022-09-20T21:21:48.161Z,27.54
2022-09-20T21:24:18.244Z,27.54
2022-09-20T21:26:49.259Z,27.53
2022-09-20T21:29:17.120Z,27.54
2022-09-20T21:31:47.229Z,27.53
2022-09-20T21:34:17.527Z,27.52
2022-09-20T21:36:45.321Z,27.52
2022-09-20T21:39:14.260Z,27.51
2022-09-20T21:41:43.823Z,27.51
2022-09-20T21:44:15.571Z,27.50
2022-09-20T21:46:42.936Z,27.51
2022-09-20T21:49:14.327Z,27.52
2022-09-20T21:51:44.737Z,27.52
2022-09-20T21:54:13.493Z,27.52
2022-09-20T21:56:41.775Z,27.53
2022-09-20T21:59:10.803Z,27.54
2022-09-20T22:01:42.036Z,27.53
2022-09-20T22:04:15.919Z,27.53
2022-09-20T22:06:44.817Z,27.53
2022-09-20T22:09:19.341Z,27.54
2022-09-20T22:11:48.860Z,27.53
2022-09-20T22:14:20.202Z,27.52
2022-09-20T22:16:52.394Z,27.52
2022-09-20T22:19:20.735Z,27.52
2022-09-20T22:21:53.719Z,27.52
2022-09-20T22:24:20.870Z,27.52
2022-09-20T22:26:51.604Z,27.51
2022-09-20T22:29:21.729Z,27.51
2022-09-20T22:31:50.257Z,27.51
2022-09-20T22:34:25.156Z,27.51
2022-09-20T22:36:54.654Z,27.50
2022-09-20T22:39:21.823Z,27.50
2022-09-20T22:41:51.094Z,27.50
2022-09-20T22:44:18.140Z,27.50
2022-09-20T22:46:45.598Z,27.51
2022-09-20T22:49:12.855Z,27.51
2022-09-20T22:51:40.000Z,27.51
2022-09-20T22:54:12.582Z,27.51
2022-09-20T22:56:41.872Z,27.51
2022-09-20T22:59:17.044Z,27.51
2022-09-20T23:01:47.696Z,27.51
2022-09-20T23:04:22.893Z,27.51
2022-09-20T23:06:56.264Z,27.51
2022-09-20T23:09:24.975Z,27.51
2022-09-20T23:11:53.245Z,27.51
2022-09-20T23:14:26.027Z,27.51
2022-09-20T23:16:53.536Z,27.51
2022-09-20T23:19:20.902Z,27.51
2022-09-20T23:21:55.417Z,27.52
2022-09-20T23:24:22.306Z,27.52
2022-09-20T23:26:49.395Z,27.53
2022-09-20T23:29:17.024Z,27.53
2022-09-20T23:31:52.266Z,27.53
2022-09-20T23:34:19.666Z,27.53
2022-09-20T23:36:47.169Z,27.53
2022-09-20T23:39:15.364Z,27.53
2022-09-20T23:41:49.963Z,27.52
2022-09-20T23:44:17.839Z,27.52
2022-09-20T23:46:44.886Z,27.52
2022-09-20T23:49:11.827Z,27.52
2022-09-20T23:51:38.982Z,27.52
2022-09-20T23:54:12.248Z,27.52
2022-09-20T23:56:41.059Z,27.51
2022-09-20T23:59:07.975Z,27.52
